createdAt,value
2022-09-11T00:00:19.761Z,16.40
2022-09-11T00:01:19.842Z,16.30
2022-09-11T00:02:19.748Z,17.70
2022-09-11T00:03:19.702Z,15.40
2022-09-11T00:04:19.713Z,16.20
2022-09-11T00:05:19.716Z,16.70
2022-09-11T00:06:28.909Z,17.40
2022-09-11T00:07:21.638Z,17.70
2022-09-11T00:08:19.616Z,17.40
2022-09-11T00:09:19.636Z,17.80
2022-09-11T00:10:19.596Z,17.80
2022-09-11T00:11:19.575Z,18.80
2022-09-11T00:12:19.611Z,18.10
2022-09-11T00:13:19.545Z,17.70
2022-09-11T00:14:19.552Z,18.60
2022-09-11T00:15:19.507Z,18.50
2022-09-11T00:16:19.514Z,18.40
2022-09-11T00:17:19.475Z,18.80
2022-09-11T00:18:19.449Z,18.00
2022-09-11T00:19:19.474Z,17.60
2022-09-11T00:20:19.431Z,19.20
2022-09-11T00:21:19.395Z,18.60
2022-09-11T00:22:19.393Z,20.40
2022-09-11T00:23:19.364Z,18.20
2022-09-11T00:24:19.381Z,19.00
2022-09-11T00:25:19.330Z,18.20
2022-09-11T00:26:19.323Z,17.90
2022-09-11T00:27:19.297Z,17.60
2022-09-11T00:28:19.284Z,18.80
2022-09-11T00:29:19.287Z,19.10
2022-09-11T00:30:19.252Z,19.90
2022-09-11T00:31:19.262Z,18.70
2022-09-11T00:32:19.221Z,18.60
2022-09-11T00:33:19.241Z,18.60
2022-09-11T00:34:19.239Z,19.60
2022-09-11T00:35:19.178Z,19.50
2022-09-11T00:36:19.152Z,21.40
2022-09-11T00:37:19.144Z,19.90
2022-09-11T00:38:19.110Z,21.60
2022-09-11T00:39:19.153Z,22.30
2022-09-11T00:40:19.110Z,21.00
2022-09-11T00:41:19.084Z,22.10
2022-09-11T00:42:19.062Z,21.80
2022-09-11T00:43:19.039Z,22.10
2022-09-11T00:44:19.044Z,23.70
2022-09-11T00:45:19.019Z,24.00
2022-09-11T00:46:18.993Z,22.80
2022-09-11T00:47:18.978Z,23.70
2022-09-11T00:48:18.962Z,24.50
2022-09-11T00:49:18.993Z,24.70
2022-09-11T00:50:19.523Z,24.90
2022-09-11T00:51:19.906Z,24.40
2022-09-11T00:52:18.896Z,24.20
2022-09-11T00:53:18.865Z,24.20
2022-09-11T00:54:18.879Z,26.90
2022-09-11T00:55:18.828Z,26.60
2022-09-11T00:56:18.811Z,27.80
2022-09-11T00:57:18.870Z,25.20
2022-09-11T00:58:18.843Z,25.80
2022-09-11T00:59:18.794Z,27.10
2022-09-11T01:00:18.744Z,25.90
2022-09-11T01:01:18.797Z,26.30
2022-09-11T01:02:18.712Z,27.40
2022-09-11T01:03:18.708Z,26.30
2022-09-11T01:04:18.711Z,27.20
2022-09-11T01:05:18.670Z,27.70
2022-09-11T01:06:18.647Z,27.00
2022-09-11T01:07:18.639Z,26.20
2022-09-11T01:08:18.607Z,25.50
2022-09-11T01:09:18.623Z,26.10
2022-09-11T01:10:18.594Z,27.60
2022-09-11T01:11:18.564Z,28.30
2022-09-11T01:12:18.540Z,27.00
2022-09-11T01:13:18.734Z,26.40
2022-09-11T01:14:18.537Z,28.50
2022-09-11T01:15:18.498Z,26.80
2022-09-11T01:16:18.566Z,27.80
2022-09-11T01:17:18.457Z,29.70
2022-09-11T01:18:18.452Z,27.30
2022-09-11T01:19:18.460Z,27.90
2022-09-11T01:20:18.417Z,27.70
2022-09-11T01:21:18.391Z,29.70
2022-09-11T01:22:18.380Z,28.90
2022-09-11T01:23:20.914Z,30.10
2022-09-11T01:24:18.391Z,29.20
2022-09-11T01:25:18.348Z,27.90
2022-09-11T01:26:18.310Z,29.80
2022-09-11T01:27:18.292Z,31.20
2022-09-11T01:28:18.282Z,29.70
2022-09-11T01:29:18.289Z,30.90
2022-09-11T01:30:18.234Z,29.00
2022-09-11T01:31:18.294Z,29.80
2022-09-11T01:32:18.206Z,28.00
2022-09-11T01:33:18.199Z,29.70
2022-09-11T01:34:18.258Z,27.80
2022-09-11T01:35:18.232Z,28.10
2022-09-11T01:36:18.135Z,28.00
2022-09-11T01:37:18.125Z,28.20
2022-09-11T01:38:18.111Z,28.60
2022-09-11T01:39:18.116Z,27.00
2022-09-11T01:40:18.068Z,28.20
2022-09-11T01:41:18.076Z,27.60
2022-09-11T01:42:18.034Z,27.90
2022-09-11T01:43:18.018Z,26.60
2022-09-11T01:44:18.031Z,25.70
2022-09-11T01:45:17.982Z,26.10
2022-09-11T01:46:17.985Z,26.90
2022-09-11T01:47:17.956Z,25.20
2022-09-11T01:48:17.942Z,28.00
2022-09-11T01:49:17.958Z,25.80
2022-09-11T01:50:17.911Z,26.80
2022-09-11T01:51:17.885Z,27.00
2022-09-11T01:52:17.873Z,26.10
2022-09-11T01:53:17.851Z,27.40
2022-09-11T01:54:17.861Z,27.30
2022-09-11T01:55:17.836Z,28.00
2022-09-11T01:56:17.810Z,27.00
2022-09-11T01:57:17.802Z,27.00
2022-09-11T01:58:17.781Z,27.10
2022-09-11T01:59:17.807Z,27.00
2022-09-11T02:00:17.730Z,25.80
2022-09-11T02:01:18.718Z,27.90
2022-09-11T02:02:17.753Z,27.40
2022-09-11T02:03:17.699Z,25.30
2022-09-11T02:04:17.704Z,27.80
2022-09-11T02:05:17.648Z,27.50
2022-09-11T02:06:17.639Z,29.50
2022-09-11T02:07:17.622Z,27.90
2022-09-11T02:08:17.625Z,28.10
2022-09-11T02:09:17.625Z,27.70
2022-09-11T02:10:17.584Z,26.40
2022-09-11T02:11:17.564Z,27.90
2022-09-11T02:12:17.601Z,27.20
2022-09-11T02:13:17.576Z,27.90
2022-09-11T02:14:17.559Z,27.90
2022-09-11T02:15:17.492Z,26.30
2022-09-11T02:16:17.494Z,29.20
2022-09-11T02:17:17.474Z,27.40
2022-09-11T02:18:17.438Z,27.20
2022-09-11T02:19:17.461Z,28.90
2022-09-11T02:20:18.419Z,27.50
2022-09-11T02:21:17.403Z,28.70
2022-09-11T02:22:17.415Z,29.10
2022-09-11T02:23:17.368Z,28.80
2022-09-11T02:24:17.403Z,27.80
2022-09-11T02:25:17.330Z,29.30
2022-09-11T02:26:17.311Z,29.70
2022-09-11T02:27:17.303Z,30.00
2022-09-11T02:28:17.308Z,29.80
2022-09-11T02:29:17.353Z,30.40
2022-09-11T02:30:17.262Z,28.40
2022-09-11T02:31:17.270Z,27.80
2022-09-11T02:32:17.208Z,28.90
2022-09-11T02:33:17.210Z,30.10
2022-09-11T02:34:17.206Z,28.60
2022-09-11T02:35:17.208Z,29.00
2022-09-11T02:36:17.158Z,29.40
2022-09-11T02:37:17.150Z,28.80
2022-09-11T02:38:17.112Z,27.70
2022-09-11T02:39:17.127Z,30.10
2022-09-11T02:40:17.210Z,29.50
2022-09-11T02:41:17.086Z,30.60
2022-09-11T02:42:17.067Z,29.70
2022-09-11T02:43:17.024Z,30.10
2022-09-11T02:44:17.050Z,29.20
2022-09-11T02:45:17.007Z,26.70
2022-09-11T02:46:16.972Z,29.10
2022-09-11T02:47:17.050Z,30.50
2022-09-11T02:48:16.934Z,31.00
2022-09-11T02:49:16.952Z,29.20
2022-09-11T02:50:16.906Z,31.40
2022-09-11T02:51:16.899Z,31.00
2022-09-11T02:52:16.876Z,32.90
2022-09-11T02:53:16.866Z,30.20
2022-09-11T02:54:16.876Z,29.30
2022-09-11T02:55:16.836Z,33.50
2022-09-11T02:56:16.819Z,33.10
2022-09-11T02:57:16.801Z,31.10
2022-09-11T02:58:16.790Z,33.50
2022-09-11T02:59:16.803Z,32.70
2022-09-11T03:00:16.754Z,31.30
2022-09-11T03:01:16.753Z,32.90
2022-09-11T03:02:16.750Z,33.10
2022-09-11T03:03:16.698Z,35.10
2022-09-11T03:04:16.755Z,32.60
2022-09-11T03:05:16.654Z,33.00
2022-09-11T03:06:16.648Z,30.40
2022-09-11T03:07:16.642Z,32.10
2022-09-11T03:08:16.608Z,33.70
2022-09-11T03:09:16.615Z,34.00
2022-09-11T03:10:16.583Z,32.70
2022-09-11T03:11:16.565Z,34.30
2022-09-11T03:12:16.544Z,34.20
2022-09-11T03:13:16.550Z,33.70
2022-09-11T03:14:16.560Z,32.70
2022-09-11T03:15:16.508Z,33.00
2022-09-11T03:16:16.569Z,34.70
2022-09-11T03:17:16.460Z,34.00
2022-09-11T03:18:16.438Z,34.20
2022-09-11T03:19:16.484Z,34.60
2022-09-11T03:20:16.407Z,33.20
2022-09-11T03:21:16.403Z,33.40
2022-09-11T03:22:16.394Z,34.50
2022-09-11T03:23:16.355Z,35.30
2022-09-11T03:24:16.376Z,34.30
2022-09-11T03:25:16.336Z,35.80
2022-09-11T03:26:16.326Z,34.40
2022-09-11T03:27:16.295Z,36.10
2022-09-11T03:28:16.285Z,38.70
2022-09-11T03:29:16.293Z,36.70
2022-09-11T03:30:16.267Z,37.90
2022-09-11T03:31:16.292Z,34.20
2022-09-11T03:32:16.238Z,39.40
2022-09-11T03:33:16.185Z,36.40
2022-09-11T03:34:16.199Z,37.70
2022-09-11T03:35:16.168Z,36.80
2022-09-11T03:36:16.135Z,39.50
2022-09-11T03:37:16.119Z,34.10
2022-09-11T03:38:16.102Z,39.50
2022-09-11T03:39:16.111Z,37.40
2022-09-11T03:40:16.114Z,37.40
2022-09-11T03:41:16.064Z,36.50
2022-09-11T03:42:16.030Z,37.10
2022-09-11T03:43:16.029Z,35.50
2022-09-11T03:44:16.035Z,35.90
2022-09-11T03:45:15.986Z,35.80
2022-09-11T03:46:15.972Z,36.70
2022-09-11T03:47:15.959Z,34.90
2022-09-11T03:48:15.930Z,36.70
2022-09-11T03:49:15.965Z,37.90
2022-09-11T03:50:15.897Z,35.80
2022-09-11T03:51:15.883Z,36.00
2022-09-11T03:52:15.868Z,37.00
2022-09-11T03:53:15.853Z,35.40
2022-09-11T03:54:15.865Z,37.40
2022-09-11T03:55:15.822Z,36.10
2022-09-11T03:56:15.810Z,34.90
2022-09-11T03:57:15.777Z,34.30
2022-09-11T03:58:15.774Z,34.30
2022-09-11T03:59:15.786Z,32.90
2022-09-11T04:00:15.736Z,34.90
2022-09-11T04:01:15.788Z,35.50
2022-09-11T04:02:15.769Z,35.30
2022-09-11T04:03:15.684Z,35.70
2022-09-11T04:04:15.710Z,36.90
2022-09-11T04:05:15.658Z,34.90
2022-09-11T04:06:15.643Z,34.80
2022-09-11T04:07:15.631Z,34.60
2022-09-11T04:08:15.633Z,36.50
2022-09-11T04:09:15.616Z,34.50
2022-09-11T04:10:15.601Z,34.10
2022-09-11T04:11:15.557Z,35.30
2022-09-11T04:12:15.528Z,36.80
2022-09-11T04:13:16.543Z,33.20
2022-09-11T04:14:15.535Z,34.00
2022-09-11T04:15:15.496Z,33.40
2022-09-11T04:16:15.508Z,34.30
2022-09-11T04:17:15.462Z,36.70
2022-09-11T04:18:15.456Z,34.90
2022-09-11T04:19:15.462Z,34.30
2022-09-11T04:20:15.420Z,34.90
2022-09-11T04:21:15.395Z,34.10
2022-09-11T04:22:15.378Z,33.80
2022-09-11T04:23:15.347Z,36.90
2022-09-11T04:24:15.365Z,34.00
2022-09-11T04:25:15.333Z,35.00
2022-09-11T04:26:15.302Z,33.90
2022-09-11T04:27:15.281Z,35.70
2022-09-11T04:28:15.263Z,32.60
2022-09-11T04:29:15.289Z,34.30
2022-09-11T04:30:15.244Z,30.90
2022-09-11T04:31:15.239Z,33.90
2022-09-11T04:32:15.295Z,31.50
2022-09-11T04:33:15.190Z,31.00
2022-09-11T04:34:15.200Z,31.60
2022-09-11T04:35:15.159Z,31.00
2022-09-11T04:36:15.133Z,33.10
2022-09-11T04:37:15.125Z,32.80
2022-09-11T04:38:15.104Z,32.10
2022-09-11T04:39:15.106Z,32.50
2022-09-11T04:40:15.065Z,33.10
2022-09-11T04:41:15.042Z,32.20
2022-09-11T04:42:15.028Z,33.90
2022-09-11T04:43:15.012Z,33.70
2022-09-11T04:44:15.031Z,33.60
2022-09-11T04:45:14.984Z,34.40
2022-09-11T04:46:14.980Z,31.70
2022-09-11T04:47:14.973Z,32.90
2022-09-11T04:48:14.941Z,31.90
2022-09-11T04:49:14.956Z,33.20
2022-09-11T04:50:14.898Z,30.90
2022-09-11T04:51:14.889Z,31.50
2022-09-11T04:52:14.871Z,31.90
2022-09-11T04:53:14.844Z,32.80
2022-09-11T04:54:14.858Z,31.30
2022-09-11T04:55:14.813Z,32.90
2022-09-11T04:56:14.797Z,32.90
2022-09-11T04:57:14.792Z,31.50
2022-09-11T04:58:14.772Z,31.60
2022-09-11T04:59:14.809Z,32.00
2022-09-11T05:00:14.738Z,33.20
2022-09-11T05:01:14.758Z,32.60
2022-09-11T05:02:14.758Z,33.10
2022-09-11T05:03:14.692Z,33.40
2022-09-11T05:04:14.692Z,33.20
2022-09-11T05:05:14.654Z,33.30
2022-09-11T05:06:14.632Z,32.10
2022-09-11T05:07:14.617Z,33.50
2022-09-11T05:08:14.608Z,34.00
2022-09-11T05:09:14.624Z,33.70
2022-09-11T05:10:14.582Z,35.00
2022-09-11T05:11:14.555Z,33.30
2022-09-11T05:12:14.585Z,33.70
2022-09-11T05:13:14.524Z,33.50
2022-09-11T05:14:14.530Z,30.60
2022-09-11T05:15:14.520Z,31.80
2022-09-11T05:16:14.510Z,32.10
2022-09-11T05:17:14.477Z,32.50
2022-09-11T05:18:14.446Z,30.90
2022-09-11T05:19:15.462Z,30.40
2022-09-11T05:20:14.397Z,29.20
2022-09-11T05:21:14.407Z,27.40
2022-09-11T05:22:14.365Z,29.00
2022-09-11T05:23:14.393Z,29.40
2022-09-11T05:24:14.339Z,29.30
2022-09-11T05:25:14.368Z,28.60
2022-09-11T05:26:14.308Z,30.00
2022-09-11T05:27:14.293Z,31.30
2022-09-11T05:28:14.420Z,30.00
2022-09-11T05:29:14.257Z,30.00
2022-09-11T05:30:14.229Z,30.70
2022-09-11T05:31:14.269Z,29.50
2022-09-11T05:32:14.198Z,30.00
2022-09-11T05:33:14.225Z,28.70
2022-09-11T05:34:14.169Z,28.30
2022-09-11T05:35:14.146Z,28.10
2022-09-11T05:36:14.136Z,29.10
2022-09-11T05:37:14.114Z,27.80
2022-09-11T05:38:14.119Z,27.10
2022-09-11T05:39:14.117Z,26.30
2022-09-11T05:40:14.160Z,27.40
2022-09-11T05:41:14.047Z,26.70
2022-09-11T05:42:14.035Z,26.90
2022-09-11T05:43:14.013Z,26.60
2022-09-11T05:44:14.055Z,25.30
2022-09-11T05:45:13.997Z,26.20
2022-09-11T05:46:13.967Z,27.20
2022-09-11T05:47:13.967Z,26.50
2022-09-11T05:48:13.966Z,26.30
2022-09-11T05:49:13.952Z,26.30
2022-09-11T05:50:13.901Z,26.70
2022-09-11T05:51:13.891Z,26.80
2022-09-11T05:52:13.867Z,27.20
2022-09-11T05:53:13.853Z,26.80
2022-09-11T05:54:13.871Z,27.00
2022-09-11T05:55:13.819Z,25.80
2022-09-11T05:56:13.799Z,27.10
2022-09-11T05:57:13.777Z,26.70
2022-09-11T05:58:13.760Z,26.20
2022-09-11T05:59:13.786Z,25.30
2022-09-11T06:00:13.723Z,26.40
2022-09-11T06:01:13.755Z,25.70
2022-09-11T06:02:13.718Z,26.30
2022-09-11T06:03:15.605Z,27.40
2022-09-11T06:04:14.714Z,25.70
2022-09-11T06:05:13.649Z,26.40
2022-09-11T06:06:13.709Z,24.40
2022-09-11T06:07:13.616Z,25.10
2022-09-11T06:08:13.628Z,26.40
2022-09-11T06:09:13.608Z,25.50
2022-09-11T06:10:13.570Z,26.30
2022-09-11T06:11:13.570Z,25.90
2022-09-11T06:12:13.530Z,25.50
2022-09-11T06:13:13.531Z,26.40
2022-09-11T06:14:13.536Z,24.90
2022-09-11T06:15:30.080Z,25.20
2022-09-11T06:16:18.333Z,26.10
2022-09-11T06:17:14.460Z,25.00
2022-09-11T06:18:13.466Z,25.30
2022-09-11T06:19:13.442Z,24.50
2022-09-11T06:20:13.397Z,25.00
2022-09-11T06:21:13.383Z,23.90
2022-09-11T06:22:13.392Z,26.20
2022-09-11T06:23:13.349Z,24.60
2022-09-11T06:24:13.354Z,23.60
2022-09-11T06:25:13.312Z,25.30
2022-09-11T06:26:13.297Z,23.70
2022-09-11T06:27:13.281Z,24.40
2022-09-11T06:28:13.293Z,23.10
2022-09-11T06:29:13.287Z,23.10
2022-09-11T06:30:13.243Z,24.00
2022-09-11T06:31:13.210Z,24.30
2022-09-11T06:32:13.219Z,24.90
2022-09-11T06:33:13.197Z,23.50
2022-09-11T06:34:13.200Z,23.90
2022-09-11T06:35:13.143Z,23.80
2022-09-11T06:36:13.132Z,22.90
2022-09-11T06:37:13.139Z,23.30
2022-09-11T06:38:13.111Z,23.80
2022-09-11T06:39:13.163Z,24.50
2022-09-11T06:40:13.097Z,23.80
2022-09-11T06:41:13.062Z,24.20
2022-09-11T06:42:13.035Z,23.00
2022-09-11T06:43:13.095Z,22.50
2022-09-11T06:44:13.034Z,23.20
2022-09-11T06:45:12.988Z,23.50
2022-09-11T06:46:13.047Z,23.00
2022-09-11T06:47:12.960Z,23.30
2022-09-11T06:48:12.965Z,23.40
2022-09-11T06:49:12.967Z,23.30
2022-09-11T06:50:12.921Z,22.60
2022-09-11T06:51:12.882Z,21.90
2022-09-11T06:52:12.875Z,22.70
2022-09-11T06:53:12.853Z,23.30
2022-09-11T06:54:12.913Z,23.00
2022-09-11T06:55:12.824Z,23.30
2022-09-11T06:56:12.822Z,22.40
2022-09-11T06:57:12.775Z,22.20
2022-09-11T06:58:12.841Z,22.90
2022-09-11T06:59:12.836Z,21.60
2022-09-11T07:00:12.732Z,21.50
2022-09-11T07:01:12.811Z,20.90
2022-09-11T07:02:12.785Z,21.30
2022-09-11T07:03:12.695Z,19.90
2022-09-11T07:04:12.682Z,21.70
2022-09-11T07:05:12.645Z,21.60
2022-09-11T07:06:12.621Z,20.80
2022-09-11T07:07:12.599Z,21.40
2022-09-11T07:08:12.616Z,22.20
2022-09-11T07:09:12.596Z,23.10
2022-09-11T07:10:12.547Z,21.90
2022-09-11T07:11:12.551Z,22.30
2022-09-11T07:12:12.562Z,21.10
2022-09-11T07:13:12.510Z,20.50
2022-09-11T07:14:12.520Z,19.00
2022-09-11T07:15:12.479Z,20.50
2022-09-11T07:16:12.492Z,19.90
2022-09-11T07:17:12.441Z,19.90
2022-09-11T07:18:12.414Z,20.20
2022-09-11T07:19:12.422Z,20.60
2022-09-11T07:20:12.380Z,20.20
2022-09-11T07:21:12.404Z,20.10
2022-09-11T07:22:12.341Z,20.40
2022-09-11T07:23:12.333Z,19.80
2022-09-11T07:24:12.346Z,20.60
2022-09-11T07:25:12.299Z,20.20
2022-09-11T07:26:12.284Z,19.60
2022-09-11T07:27:12.257Z,18.00
2022-09-11T07:28:12.258Z,18.80
2022-09-11T07:29:12.260Z,19.60
2022-09-11T07:30:12.218Z,18.30
2022-09-11T07:31:12.311Z,18.90
2022-09-11T07:32:12.271Z,20.00
2022-09-11T07:33:12.164Z,18.80
2022-09-11T07:34:12.320Z,18.70
2022-09-11T07:35:12.125Z,19.20
2022-09-11T07:36:12.216Z,18.60
2022-09-11T07:37:12.091Z,18.50
2022-09-11T07:38:12.073Z,20.50
2022-09-11T07:39:12.096Z,21.10
2022-09-11T07:40:12.072Z,19.60
2022-09-11T07:41:12.017Z,20.20
2022-09-11T07:42:12.001Z,19.40
2022-09-11T07:43:11.980Z,18.70
2022-09-11T07:44:12.018Z,18.80
2022-09-11T07:45:11.948Z,19.50
2022-09-11T07:46:11.960Z,19.80
2022-09-11T07:47:11.920Z,19.10
2022-09-11T07:48:11.950Z,20.30
2022-09-11T07:49:11.913Z,19.40
2022-09-11T07:50:11.865Z,19.00
2022-09-11T07:51:11.859Z,19.00
2022-09-11T07:52:16.223Z,19.50
2022-09-11T07:53:13.817Z,18.30
2022-09-11T07:54:11.827Z,18.40
2022-09-11T07:55:11.783Z,18.80
2022-09-11T07:56:11.784Z,19.30
2022-09-11T07:57:11.741Z,19.30
2022-09-11T07:58:11.773Z,19.20
2022-09-11T07:59:11.743Z,18.00
2022-09-11T08:00:11.700Z,19.80
2022-09-11T08:01:11.750Z,18.30
2022-09-11T08:02:11.750Z,18.10
2022-09-11T08:03:11.654Z,19.20
2022-09-11T08:04:11.685Z,18.90
2022-09-11T08:05:11.610Z,18.10
2022-09-11T08:06:11.645Z,17.40
2022-09-11T08:07:11.607Z,17.90
2022-09-11T08:08:11.604Z,16.60
2022-09-11T08:09:11.588Z,18.90
2022-09-11T08:10:26.587Z,18.30
2022-09-11T08:11:13.534Z,17.50
2022-09-11T08:12:11.496Z,17.30
2022-09-11T08:13:11.484Z,18.20
2022-09-11T08:14:11.509Z,17.00
2022-09-11T08:15:11.436Z,16.70
2022-09-11T08:16:11.453Z,16.10
2022-09-11T08:17:11.399Z,17.60
2022-09-11T08:18:11.393Z,16.70
2022-09-11T08:19:11.403Z,15.90
2022-09-11T08:20:11.348Z,15.90
2022-09-11T08:21:13.075Z,16.10
2022-09-11T08:22:12.323Z,15.90
2022-09-11T08:23:11.311Z,15.60
2022-09-11T08:24:11.317Z,14.30
2022-09-11T08:25:11.273Z,15.80
2022-09-11T08:26:11.245Z,15.40
2022-09-11T08:27:11.244Z,15.10
2022-09-11T08:28:11.342Z,16.20
2022-09-11T08:29:11.225Z,15.20
2022-09-11T08:30:11.169Z,15.20
2022-09-11T08:31:11.190Z,15.20
2022-09-11T08:32:11.176Z,14.70
2022-09-11T08:33:11.122Z,15.50
2022-09-11T08:34:11.147Z,14.60
2022-09-11T08:35:11.096Z,14.60
2022-09-11T08:36:11.085Z,14.80
2022-09-11T08:37:11.054Z,14.70
2022-09-11T08:38:11.109Z,14.90
2022-09-11T08:39:11.061Z,13.80
2022-09-11T08:40:11.048Z,14.90
2022-09-11T08:41:10.984Z,14.30
2022-09-11T08:42:10.981Z,14.30
2022-09-11T08:43:10.946Z,14.60
2022-09-11T08:44:10.968Z,14.30
2022-09-11T08:45:10.958Z,14.80
2022-09-11T08:46:11.010Z,13.30
2022-09-11T08:47:10.891Z,14.30
2022-09-11T08:48:10.900Z,14.30
2022-09-11T08:49:10.890Z,14.00
2022-09-11T08:50:10.832Z,13.90
2022-09-11T08:51:10.858Z,13.60
2022-09-11T08:52:10.801Z,14.10
2022-09-11T08:53:12.835Z,13.60
2022-09-11T08:54:11.807Z,12.80
2022-09-11T08:55:10.734Z,12.50
2022-09-11T08:56:10.728Z,12.90
2022-09-11T08:57:10.718Z,12.80
2022-09-11T08:58:10.725Z,13.00
2022-09-11T08:59:10.678Z,12.90
2022-09-11T09:00:10.706Z,11.30
2022-09-11T09:01:10.692Z,11.80
2022-09-11T09:02:10.684Z,12.60
2022-09-11T09:03:10.599Z,12.40
2022-09-11T09:04:10.631Z,12.50
2022-09-11T09:05:10.592Z,11.70
2022-09-11T09:06:10.560Z,12.10
2022-09-11T09:07:10.564Z,11.90
2022-09-11T09:08:10.524Z,11.60
2022-09-11T09:09:11.524Z,11.80
2022-09-11T09:10:10.526Z,11.20
2022-09-11T09:11:10.477Z,11.30
2022-09-11T09:12:10.445Z,10.90
2022-09-11T09:13:10.535Z,11.50
2022-09-11T09:14:10.405Z,11.00
2022-09-11T09:15:10.409Z,11.60
2022-09-11T09:16:10.423Z,11.50
2022-09-11T09:17:10.354Z,11.20
2022-09-11T09:18:10.332Z,11.40
2022-09-11T09:19:10.335Z,11.30
2022-09-11T09:20:10.337Z,11.30
2022-09-11T09:21:10.285Z,11.50
2022-09-11T09:22:10.270Z,11.60
2022-09-11T09:23:10.252Z,11.40
2022-09-11T09:24:10.309Z,11.00
2022-09-11T09:25:10.253Z,11.10
2022-09-11T09:26:10.190Z,11.10
2022-09-11T09:27:10.203Z,11.50
2022-09-11T09:28:10.194Z,11.10
2022-09-11T09:29:10.137Z,11.40
2022-09-11T09:30:10.154Z,11.00
2022-09-11T09:31:10.137Z,11.10
2022-09-11T09:32:10.101Z,11.20
2022-09-11T09:33:13.206Z,10.80
2022-09-11T09:34:11.076Z,10.60
2022-09-11T09:35:10.119Z,10.90
2022-09-11T09:36:10.027Z,11.80
2022-09-11T09:37:10.043Z,10.50
2022-09-11T09:38:10.016Z,10.90
2022-09-11T09:39:09.966Z,11.40
2022-09-11T09:40:10.034Z,10.80
2022-09-11T09:41:09.927Z,11.50
2022-09-11T09:42:09.913Z,11.90
2022-09-11T09:43:09.889Z,11.60
2022-09-11T09:44:09.890Z,11.30
2022-09-11T09:45:09.887Z,11.80
2022-09-11T09:46:09.960Z,11.60
2022-09-11T09:47:09.838Z,12.30
2022-09-11T09:48:09.805Z,11.10
2022-09-11T09:49:09.796Z,11.40
2022-09-11T09:50:09.814Z,11.70
2022-09-11T09:51:09.759Z,10.20
2022-09-11T09:52:09.752Z,10.70
2022-09-11T09:53:09.730Z,12.30
2022-09-11T09:54:09.736Z,11.30
2022-09-11T09:55:09.816Z,12.20
2022-09-11T09:56:09.691Z,10.60
2022-09-11T09:57:09.657Z,10.50
2022-09-11T09:58:09.703Z,10.60
2022-09-11T09:59:09.619Z,10.80
2022-09-11T10:00:09.632Z,11.50
2022-09-11T10:01:09.616Z,11.80
2022-09-11T10:02:09.596Z,11.70
2022-09-11T10:03:09.542Z,11.30
2022-09-11T10:04:09.629Z,11.80
2022-09-11T10:05:09.533Z,12.60
2022-09-11T10:06:09.487Z,12.00
2022-09-11T10:07:09.467Z,12.00
2022-09-11T10:08:09.492Z,12.30
2022-09-11T10:09:09.435Z,11.90
2022-09-11T10:10:09.506Z,11.70
2022-09-11T10:11:09.400Z,12.40
2022-09-11T10:12:10.226Z,12.60
2022-09-11T10:13:19.176Z,12.60
2022-09-11T10:14:13.646Z,11.90
2022-09-11T10:15:11.370Z,13.20
2022-09-11T10:16:09.366Z,12.20
2022-09-11T10:17:09.301Z,12.50
2022-09-11T10:18:09.310Z,11.20
2022-09-11T10:19:09.273Z,11.40
2022-09-11T10:20:09.304Z,11.40
2022-09-11T10:21:09.235Z,11.80
2022-09-11T10:22:09.219Z,11.00
2022-09-11T10:23:09.215Z,12.10
2022-09-11T10:24:09.235Z,11.30
2022-09-11T10:25:09.245Z,11.20
2022-09-11T10:26:09.246Z,11.30
2022-09-11T10:27:09.208Z,10.80
2022-09-11T10:28:09.123Z,11.00
2022-09-11T10:29:09.139Z,11.50
2022-09-11T10:30:09.169Z,11.00
2022-09-11T10:31:09.138Z,10.90
2022-09-11T10:32:09.045Z,10.70
2022-09-11T10:33:09.115Z,11.00
2022-09-11T10:34:09.012Z,11.30
2022-09-11T10:35:09.048Z,10.90
2022-09-11T10:36:08.970Z,10.30
2022-09-11T10:37:08.962Z,10.10
2022-09-11T10:38:09.021Z,10.20
2022-09-11T10:39:08.936Z,9.20
2022-09-11T10:40:08.998Z,9.90
2022-09-11T10:41:08.912Z,10.90
2022-09-11T10:42:08.866Z,10.00
2022-09-11T10:43:08.854Z,9.90
2022-09-11T10:44:08.829Z,10.70
2022-09-11T10:45:08.859Z,10.90
2022-09-11T10:46:08.834Z,10.70
2022-09-11T10:47:08.824Z,10.20
2022-09-11T10:48:08.828Z,11.00
2022-09-11T10:49:08.747Z,10.30
2022-09-11T10:50:08.763Z,10.10
2022-09-11T10:51:08.749Z,9.80
2022-09-11T10:52:08.743Z,10.20
2022-09-11T10:53:08.688Z,9.40
2022-09-11T10:54:08.699Z,10.10
2022-09-11T10:55:08.708Z,10.00
2022-09-11T10:56:08.683Z,9.60
2022-09-11T10:57:08.637Z,9.70
2022-09-11T10:58:08.607Z,9.80
2022-09-11T10:59:08.610Z,9.10
2022-09-11T11:00:08.625Z,9.10
2022-09-11T11:01:08.603Z,8.90
2022-09-11T11:02:08.570Z,8.80
2022-09-11T11:03:08.540Z,8.60
2022-09-11T11:04:12.191Z,8.80
2022-09-11T11:05:09.526Z,8.80
2022-09-11T11:06:08.507Z,9.10
2022-09-11T11:07:08.451Z,8.80
2022-09-11T11:08:08.486Z,9.70
2022-09-11T11:09:08.420Z,9.00
2022-09-11T11:10:08.429Z,9.20
2022-09-11T11:11:08.384Z,8.90
2022-09-11T11:12:08.368Z,8.60
2022-09-11T11:13:08.336Z,9.10
2022-09-11T11:14:08.378Z,8.90
2022-09-11T11:15:08.359Z,8.60
2022-09-11T11:16:08.348Z,8.50
2022-09-11T11:17:08.274Z,8.60
2022-09-11T11:18:08.237Z,8.20
2022-09-11T11:19:08.229Z,7.70
2022-09-11T11:20:08.241Z,7.70
2022-09-11T11:21:08.198Z,8.10
2022-09-11T11:22:08.174Z,7.20
2022-09-11T11:23:08.157Z,6.90
2022-09-11T11:24:08.146Z,7.10
2022-09-11T11:25:08.229Z,7.60
2022-09-11T11:26:08.125Z,7.00
2022-09-11T11:27:08.206Z,6.90
2022-09-11T11:28:08.120Z,7.30
2022-09-11T11:29:08.066Z,6.90
2022-09-11T11:30:08.071Z,6.50
2022-09-11T11:31:08.124Z,7.00
2022-09-11T11:32:08.013Z,7.10
2022-09-11T11:33:07.999Z,6.50
2022-09-11T11:34:07.989Z,7.90
2022-09-11T11:35:07.990Z,8.40
2022-09-11T11:36:07.982Z,7.60
2022-09-11T11:37:07.950Z,6.90
2022-09-11T11:38:07.983Z,6.70
2022-09-11T11:39:07.955Z,6.40
2022-09-11T11:40:08.030Z,6.30
2022-09-11T11:41:07.889Z,6.10
2022-09-11T11:42:07.846Z,5.80
2022-09-11T11:43:07.833Z,5.80
2022-09-11T11:44:07.835Z,6.10
2022-09-11T11:45:08.628Z,6.30
2022-09-11T11:46:07.820Z,5.80
2022-09-11T11:47:07.767Z,6.30
2022-09-11T11:48:07.838Z,5.20
2022-09-11T11:49:07.777Z,6.00
2022-09-11T11:50:07.750Z,4.60
2022-09-11T11:51:07.695Z,4.90
2022-09-11T11:52:07.692Z,4.40
2022-09-11T11:53:07.669Z,4.80
2022-09-11T11:54:07.659Z,4.50
2022-09-11T11:55:07.666Z,4.00
2022-09-11T11:56:07.622Z,4.10
2022-09-11T11:57:07.608Z,4.20
2022-09-11T11:58:07.637Z,4.40
2022-09-11T11:59:07.574Z,4.20
2022-09-11T12:00:07.595Z,3.90
2022-09-11T12:01:07.565Z,4.30
2022-09-11T12:02:07.598Z,3.60
2022-09-11T12:03:07.518Z,4.20
2022-09-11T12:04:07.523Z,4.10
2022-09-11T12:05:07.511Z,4.70
2022-09-11T12:06:07.470Z,5.20
2022-09-11T12:07:07.437Z,4.90
2022-09-11T12:08:07.473Z,5.00
2022-09-11T12:09:07.447Z,4.70
2022-09-11T12:10:07.420Z,4.90
2022-09-11T12:11:07.372Z,4.90
2022-09-11T12:12:07.369Z,4.80
2022-09-11T12:13:07.346Z,4.60
2022-09-11T12:14:07.362Z,4.60
2022-09-11T12:15:07.307Z,4.90
2022-09-11T12:16:11.058Z,4.70
2022-09-11T12:17:08.277Z,5.00
2022-09-11T12:18:07.280Z,5.20
2022-09-11T12:19:07.249Z,4.70
2022-09-11T12:20:07.246Z,4.90
2022-09-11T12:21:07.235Z,4.70
2022-09-11T12:22:07.203Z,5.20
2022-09-11T12:23:07.174Z,4.70
2022-09-11T12:24:07.160Z,4.30
2022-09-11T12:25:07.216Z,4.20
2022-09-11T12:26:07.156Z,4.30
2022-09-11T12:27:11.165Z,3.90
2022-09-11T12:28:08.127Z,4.30
2022-09-11T12:29:07.093Z,4.60
2022-09-11T12:30:07.058Z,4.20
2022-09-11T12:31:07.178Z,4.40
2022-09-11T12:32:07.021Z,4.30
2022-09-11T12:33:07.026Z,4.10
2022-09-11T12:34:07.005Z,4.60
2022-09-11T12:35:06.992Z,5.20
2022-09-11T12:36:07.021Z,5.00
2022-09-11T12:37:07.001Z,6.40
2022-09-11T12:38:07.014Z,5.60
2022-09-11T12:39:06.988Z,6.00
2022-09-11T12:40:06.946Z,6.40
2022-09-11T12:41:06.932Z,5.90
2022-09-11T12:42:06.909Z,6.10
2022-09-11T12:43:09.136Z,5.30
2022-09-11T12:44:07.842Z,5.70
2022-09-11T12:45:06.835Z,5.70
2022-09-11T12:46:06.903Z,5.50
2022-09-11T12:47:06.789Z,5.60
2022-09-11T12:48:06.767Z,5.40
2022-09-11T12:49:21.618Z,5.60
2022-09-11T12:50:08.735Z,5.30
2022-09-11T12:51:06.763Z,5.20
2022-09-11T12:52:06.712Z,5.70
2022-09-11T12:53:06.680Z,5.50
2022-09-11T12:54:06.673Z,5.20
2022-09-11T12:55:06.689Z,5.40
2022-09-11T12:56:06.822Z,5.10